Timeline UpdatesTrip UpdatesNews PostsPvt PostsTravel TipsAdmin PostsConv PostsFollowed PostsChat RequestsBlog PostsPNR Posts

Disclaimer
Search
 
 
Wed Sep 3, 2014 00:20:56 ISTHomeTrainsΣChainsAtlasPNRForumGalleryNewsFAQTripsMembersLoginFeedback
No Recent News for this Train
Other Trains in the News **new
Latest...
Renumbered as 22647 and arrival time at TVC changed to 17.15 wef 16/7/14
Mon Jun 30, 2014 (11:17AM)
⇐ Return Journey: Train# 22648

16327⇒22647/Korba - Trivandram Central SF Express

Time-Table HAS CHANGED.
Yesterday (12:04AM)
Change Departure Station:
Change Arrival Station:
Post a Train Travel TipPost a Train Travel Tip **new
Post a Comment/Question/Picture/VideoPost a Comment/Question/Picture/Video
Pantry/Catering
✓ Pantry Car Avbl
✓ Catering Avbl
Loco/Rake Reversals
MAS/Chennai Central (12); SRR/Shoranur Junction (7);
RSA - Rake Sharing
22641/22642)<-->(22645/22646)<-->(22647/22648) <--> (12643/2644) ; Entry# 1149704
Rake/Coach Composition
Loco ,SLR, UR, UR, B2, B1,A1, S11, S10, S9-S8, S7,PC, S6, S5, S4, S3, S2, S1, UR, UR, SLR; SLR-2;UR-4;SL-11;3AC-2;2AC-1;
Loco
#WAP 4 ED Shed ,Author-Avinash Raj Trip #1438
News    PNR    Forum    Time-Table    Availability    Fare Chart    Map    Arr/Dep History    Trips    Gallery    ΣChains    X/O    Timeline    
Travel Time: 1h 32m    4 halts    Distance: 71 km    Avg Speed: 46 km/hr
Type: SuperFast
Zone: SR/Southern
Departs @ 11:03
Platform# 1
 M   F 
Thrissur/TCR 
Arrives @ 12:35
Platform# 2
 M   F 
Ernakulam Town (North)/ERN 

4 halts. 13 intermediate Stations between Thrissur and Ernakulam Town (North)

Show ALL intermediate Stations  Show Old Time-Table

#CodeStation NameX/OArrivesAvgDepartsAvgHaltPFDay#KmSpeedElevZoneAddress
1KRBAKorba (3)  -19:40-21-2221.260293mSECRKorba, Chhattisgarh
2CPHChampa Junction (3)X  20:17-20:19-2m--1-2184.372264mSECRNational Highway 200 (07819-245767), Chhattisgarh
3NIANaila  20:31 20:28-20:33 20:30-2m--1-2173.460273mSECRJanjgir, Chhattisgarh
4AKTAkaltara (4)  20:45-20:47-2m--1-2158.543284mSECRDist. Janjgir Champa, Chhattisgarh
5BSPBilaspur Junction (8)X  21:25-21:35-10m31-2131.377271mSECRBilaspur, Chhattisgarh
6BYTBhatapara (4)  22:11-22:13-2m--1-2085.168270mSECRBanjari Road, Chhattisgarh
7RRaipur Junction (6)O  23:10-23:15-5m21-2020.840297mSECRRaipur, Chhattisgarh
8DURGDurg Junction (6)  00:10-00:30-20m12-1983.987299mSECRPh: 91-788-2322059, Chhattisgarh
9RJNRaj Nandgaon (3)  00:51-00:53-2m22-1953.586313mSECRRajnandgaon, Chhattisgarh
10DGGDongargarh (2)  01:15-01:17-2m--2-1921.967353mSECRDongargarh, Chhattisgarh
11GGondia Junction (7)  02:23-02:25-2m--2-1848.696316mSECRGondia 441601, Maharashtra
12TMRTumsar Road (3)X  02:56-02:58-2m--2-1799.072267mSECRBhandara, Maharashtra
13BRDBhandara Road (2)  03:13-03:15-2m--2-1781.047266mSECRState Highway 252, Maharashtra
14NGPNagpur Junction (8)  04:35-04:45-10m--2-1718.879314mCRNagpur 440001, Maharashtra
15SEGMSewagram Junction (5)  05:44 05:43-05:45-1 2m--2-1642.671279mCRWardha, Maharashtra
16HGTHinganghat (3)X  06:14 06:13-06:15-1 2m--2-1609.479228mCRHinganghat, Maharashtra
17CDChandrapur Maharashtra (3)O  07:19 07:20-07:22-3 2m--2-1524.019194mCRChandrapur 442401, Maharashtra
18BPQBalharshah Junction (5)XO  08:05-08:45 08:35-40 30m--2-1510.285188mCRBallarpur. Ph : 07172 - 240341, Maharashtra
19SKZRSirpur Kaghaznagar (3)X  09:25 09:24-09:26-1 2m22-1440.564181mSCRAdilabad Dist., Telangana
20BPABellampalli (3)O  10:03 10:02-10:04-1 2m22-1402.085205mSCRTel:.08735 223298, Telangana
21MCIManchiryal (3)O  10:19 10:18-10:20-1 2m22-1382.1103159mSCRAdilabad Dist., Telangana
22RDMRamagundam (3)XO  10:29 10:28-10:30-1 2m22-1368.465170mSCRKarimnagar Dist. Ph : 08728 - 255237, Telangana
23WLWarangal (3)  12:03-12:05-2m12-1267.372271mSCRWarangal., Telangana
24KMTKhammam (2)  13:36 13:35-13:37-1 2m12-1159.745118mSCRKhammam 507001, Telangana
25BZAVijayawada Junction (10)X  15:50-16:05-15m52-1059.36724mSCRVijayawada 520001, Andhra Pradesh
26TELTenali Junction (5)  16:34 16:33-16:35-1 2m32-1028.18216mSCRTel: 08644-227834, Andhra Pradesh
27CLXChirala (4)  17:18 17:17-17:19-1 2m--2-970.4698mSCRChirala, Andhra Pradesh
28OGLOngole (3)  18:03 18:02-18:04-1 2m32-921.09512mSCROngole, Andhra Pradesh
29NLRNellore (4)XO  19:19 19:18-19:20-1 2m32-804.32521mSCRNellore, Andhra Pradesh
30GDRGudur Junction (3)  20:53-20:55-2m12-765.85719mSCRGudur, Andhra Pradesh
31MASChennai Central (12)X23:20-23:45-25m62-628.4659mSRChennai 600003, Tamil Nadu
32KPDKatpadi Junction (5)X  01:45-01:50-5m13-499.065213mSRVellore 632007, Tamil Nadu
33JTJJolarpettai Junction (5)O  03:08-03:10-2m--3-415.180405mSRJolarpettai, Tamil Nadu
34SASalem Junction (6)X  04:40-04:45-5m--3-294.949283mSRSalem, Tamil Nadu
35EDErode Junction (4)X  06:00-06:10-10m23-233.579175mSRErode ph.no: 0424-2256111, Tamil Nadu
36TUPTiruppur (2)X  06:48-06:50-2m13-183.367305mSRTiruppur. Ph:0421-2200450, Tamil Nadu
37CBECoimbatore Main Junction (6)  07:35-07:40-5m23-132.941416mSRCoimbatore 641001, Tamil Nadu
38PGTPalakkad Junction (4)XO  09:00-09:05-5m--3-77.610684mSRPalghat Tel: 0491 2555231, Kerala
39OTPOttappalam (2)O  09:23-09:25-2m--3-45.81730mSROttapalam, Kerala
40SRRShoranur Junction (7)10:10-10:20-10m--3-32.95026mSRShoranur ph.no 0466-2222913, Kerala
41WKIWadakkanchery (2)X  10:41 10:40-10:42-1 2m13-16.45540mSRWadackanchery, Kerala
42TCR»Thrissur (4)»  11:00-11:03-3m130.0716mSRThrissur Tel: 0487 2423150, Kerala
43IJKIrinjalakkuda (2)  11:24 11:23-11:25-1 2m--323.76418mSRKalletumkara, Kerala
44CKIChalakkudy (3)X  11:32 11:31-11:33-1 2m1330.2709mSRPh: 0480- 2701368, Kerala
45AFKAngamaly for Kalady (3)  11:47 11:46-11:48-1 2m--345.44616mSRPhone: 0484-2452340, Kerala
46AWYAluva (3)X  12:00-12:02-2m1354.63112mSRPh: 0484-2624141, Kerala
47ERN•Ernakulam Town (North) (2)•  12:35-12:40-5m2371.4369mSRTel: 0484 2395198, Kerala
48TRTRThrippunithura (2)  12:57 12:56-12:58-1 2m--381.1535mSRErnakulam, Kerala
49KTYMKottayam (3)X  13:55-14:00-5m--3131.46415mSRTel: 0481 2563535, Kerala
50TRVLTiruvalla (2)  14:24-14:26-2m--3157.16827mSRPh: 0469-2601314, Kerala
51CNGRChengannur (3)  14:34-14:36-2m13166.2756mSRPh: 0479-2452340, Kerala
52MVLKMavelikara (3)X  14:46-14:48-2m13178.75813mSRMavelikkara Ph: 0479-2302249, Kerala
53KYJKayamkulam Junction (5)  14:56-14:58-2m--3186.45211mSRAlappuzha Ph;0479-2442042, Kerala
54QLNKollam Junction (6)X  15:45-15:50-5m13227.24616mSRKollam 0474-2746194, Kerala
55TVCTrivandrum Central (5)  17:15--13291.8-12mSRThiruvananthapuram 695001, Kerala
Scroll to Top
Scroll to Bottom